createdAt,value
2023-05-05T00:01:53.563Z,0.50
2023-05-05T00:04:22.818Z,0.50
2023-05-05T00:06:50.949Z,0.47
2023-05-05T00:09:18.279Z,0.68
2023-05-05T00:11:45.338Z,0.57
2023-05-05T00:14:12.494Z,0.60
2023-05-05T00:16:39.549Z,0.73
2023-05-05T00:19:06.822Z,0.77
2023-05-05T00:21:33.772Z,1.10
2023-05-05T00:24:00.857Z,1.02
2023-05-05T00:26:27.817Z,1.20
2023-05-05T00:28:55.477Z,1.05
2023-05-05T00:31:22.849Z,1.08
2023-05-05T00:33:49.821Z,0.80
2023-05-05T00:36:16.870Z,0.82
2023-05-05T00:38:43.924Z,0.90
2023-05-05T00:41:11.268Z,1.27
2023-05-05T00:43:38.679Z,1.50
2023-05-05T00:46:26.286Z,1.42
2023-05-05T00:48:54.779Z,1.10
2023-05-05T00:51:23.109Z,1.50
2023-05-05T00:53:50.499Z,1.60
2023-05-05T00:56:19.625Z,1.65
2023-05-05T00:58:47.153Z,1.55
2023-05-05T01:01:15.445Z,2.00
2023-05-05T01:03:42.587Z,1.98
2023-05-05T01:06:10.468Z,2.15
2023-05-05T01:09:01.863Z,2.20
2023-05-05T01:11:40.894Z,2.45
2023-05-05T01:14:13.720Z,2.45
2023-05-05T01:16:56.146Z,2.75
2023-05-05T01:19:47.978Z,3.38
2023-05-05T01:22:20.187Z,3.13
2023-05-05T01:25:09.012Z,2.88
2023-05-05T01:27:48.410Z,2.97
2023-05-05T01:30:47.544Z,3.08
2023-05-05T01:33:19.152Z,2.10
2023-05-05T01:35:55.454Z,2.90
2023-05-05T01:38:38.194Z,2.50
2023-05-05T01:41:18.320Z,2.78
2023-05-05T01:43:50.014Z,3.15
2023-05-05T01:46:19.415Z,3.00
2023-05-05T01:48:49.179Z,3.67
2023-05-05T01:51:19.323Z,4.13
2023-05-05T01:53:47.396Z,4.63
2023-05-05T01:56:16.049Z,5.15
2023-05-05T01:58:45.373Z,3.53
2023-05-05T02:01:14.324Z,4.78
2023-05-05T02:03:42.429Z,4.95
2023-05-05T02:06:12.371Z,4.45
2023-05-05T02:08:41.227Z,4.22
2023-05-05T02:11:10.689Z,4.25
2023-05-05T02:13:42.743Z,4.10
2023-05-05T02:16:16.948Z,3.90
2023-05-05T02:18:47.141Z,3.85
2023-05-05T02:21:18.182Z,4.15
2023-05-05T02:23:51.714Z,4.25
2023-05-05T02:26:22.041Z,4.45
2023-05-05T02:29:03.470Z,4.45
2023-05-05T02:31:32.773Z,3.72
2023-05-05T02:34:03.325Z,4.47
2023-05-05T02:36:39.528Z,4.53
2023-05-05T02:39:18.857Z,4.40
2023-05-05T02:41:48.794Z,4.13
2023-05-05T02:44:26.264Z,4.50
2023-05-05T02:46:55.087Z,3.75
2023-05-05T02:49:23.527Z,4.50
2023-05-05T02:51:54.131Z,4.75
2023-05-05T02:54:27.386Z,4.47
2023-05-05T02:56:57.934Z,4.30
2023-05-05T02:59:40.577Z,4.47
2023-05-05T03:02:19.084Z,4.15
2023-05-05T03:04:50.565Z,4.50
2023-05-05T03:08:02.037Z,4.00
2023-05-05T03:10:35.068Z,3.38
2023-05-05T03:13:05.366Z,3.50
2023-05-05T03:15:43.488Z,2.83
2023-05-05T03:18:12.367Z,2.78
2023-05-05T03:20:43.609Z,2.58
2023-05-05T03:23:18.389Z,1.80
2023-05-05T03:25:48.132Z,1.75
2023-05-05T03:28:41.329Z,1.15
2023-05-05T03:31:18.165Z,1.55
2023-05-05T03:33:49.458Z,1.20
2023-05-05T03:36:16.674Z,1.05
2023-05-05T03:38:44.027Z,1.00
2023-05-05T03:41:11.384Z,1.40
2023-05-05T03:43:39.427Z,1.50
2023-05-05T03:46:07.241Z,1.33
2023-05-05T03:48:34.431Z,1.17
2023-05-05T03:51:01.551Z,1.10
2023-05-05T03:53:31.092Z,1.25
2023-05-05T03:56:00.406Z,1.52
2023-05-05T03:58:27.756Z,1.67
2023-05-05T04:00:54.848Z,0.93
2023-05-05T04:03:22.151Z,1.02
2023-05-05T04:05:49.702Z,1.63
2023-05-05T04:08:17.139Z,1.40
2023-05-05T04:10:44.267Z,1.45
2023-05-05T04:13:12.020Z,1.60
2023-05-05T04:15:45.540Z,1.60
2023-05-05T04:18:13.540Z,1.90
2023-05-05T04:20:41.011Z,1.90
2023-05-05T04:23:08.686Z,2.38
2023-05-05T04:25:36.105Z,2.15
2023-05-05T04:28:04.542Z,2.33
2023-05-05T04:30:32.651Z,1.70
2023-05-05T04:32:59.742Z,2.65
2023-05-05T04:35:26.922Z,2.13
2023-05-05T04:37:54.927Z,1.67
2023-05-05T04:40:22.666Z,3.00
2023-05-05T04:42:49.840Z,3.30
2023-05-05T04:45:17.130Z,3.83
2023-05-05T04:47:44.486Z,3.45
2023-05-05T04:50:12.265Z,3.10
2023-05-05T04:52:39.719Z,4.10
2023-05-05T04:55:08.729Z,4.20
2023-05-05T04:57:35.858Z,4.07
2023-05-05T05:00:05.454Z,4.25
2023-05-05T05:02:32.854Z,3.17
2023-05-05T05:05:00.183Z,2.63
2023-05-05T05:07:27.318Z,3.00
2023-05-05T05:09:54.367Z,2.35
2023-05-05T05:12:21.608Z,3.40
2023-05-05T05:14:48.637Z,2.42
2023-05-05T05:17:15.833Z,2.85
2023-05-05T05:19:42.875Z,2.72
2023-05-05T05:22:10.804Z,2.70
2023-05-05T05:24:40.461Z,2.83
2023-05-05T05:27:10.094Z,2.60
2023-05-05T05:29:39.964Z,2.92
2023-05-05T05:32:07.209Z,2.70
2023-05-05T05:34:35.141Z,2.40
2023-05-05T05:37:03.673Z,2.78
2023-05-05T05:39:30.889Z,2.95
2023-05-05T05:41:58.053Z,2.63
2023-05-05T05:44:25.517Z,2.65
2023-05-05T05:46:52.773Z,2.50
2023-05-05T05:49:19.822Z,2.72
2023-05-05T05:51:47.397Z,2.85
2023-05-05T05:54:14.507Z,2.47
2023-05-05T05:56:42.932Z,2.80
2023-05-05T05:59:10.375Z,2.78
2023-05-05T06:01:40.507Z,2.65
2023-05-05T06:04:08.070Z,3.70
2023-05-05T06:06:35.409Z,3.25
2023-05-05T06:09:02.631Z,3.22
2023-05-05T06:11:31.791Z,3.20
2023-05-05T06:13:59.663Z,3.58
2023-05-05T06:16:26.916Z,2.88
2023-05-05T06:18:54.079Z,3.75
2023-05-05T06:21:21.133Z,3.50
2023-05-05T06:23:48.131Z,3.05
2023-05-05T06:26:16.086Z,3.55
2023-05-05T06:28:43.194Z,2.88
2023-05-05T06:31:10.242Z,3.15
2023-05-05T06:33:37.323Z,2.92
2023-05-05T06:36:04.607Z,3.17
2023-05-05T06:38:31.571Z,2.92
2023-05-05T06:40:58.763Z,3.35
2023-05-05T06:43:25.988Z,3.05
2023-05-05T06:45:58.007Z,2.88
2023-05-05T06:48:25.046Z,3.00
2023-05-05T06:50:52.135Z,3.20
2023-05-05T06:53:19.146Z,2.92
2023-05-05T06:55:47.802Z,3.28
2023-05-05T06:58:14.845Z,2.97
2023-05-05T07:00:42.412Z,3.30
2023-05-05T07:03:09.688Z,3.60
2023-05-05T07:05:36.943Z,3.33
2023-05-05T07:08:04.268Z,2.78
2023-05-05T07:10:34.075Z,2.83
2023-05-05T07:13:01.186Z,3.10
2023-05-05T07:15:29.640Z,2.88
2023-05-05T07:17:57.860Z,3.60
2023-05-05T07:20:25.380Z,2.63
2023-05-05T07:22:52.440Z,2.72
2023-05-05T07:25:19.647Z,2.60
2023-05-05T07:27:46.705Z,2.40
2023-05-05T07:30:17.607Z,2.70
2023-05-05T07:32:46.321Z,2.63
2023-05-05T07:35:13.811Z,2.00
2023-05-05T07:37:40.874Z,2.70
2023-05-05T07:40:08.931Z,2.58
2023-05-05T07:42:36.370Z,2.55
2023-05-05T07:45:04.760Z,2.78
2023-05-05T07:47:32.110Z,1.80
2023-05-05T07:49:59.194Z,2.13
2023-05-05T07:52:43.549Z,2.30
2023-05-05T07:55:12.049Z,1.80
2023-05-05T07:57:39.414Z,2.05
2023-05-05T08:00:07.439Z,2.08
2023-05-05T08:02:41.497Z,2.33
2023-05-05T08:05:09.425Z,2.20
2023-05-05T08:07:41.179Z,1.90
2023-05-05T08:10:12.909Z,2.60
2023-05-05T08:12:40.726Z,2.00
2023-05-05T08:15:08.502Z,2.08
2023-05-05T08:17:52.684Z,2.40
2023-05-05T08:20:21.184Z,2.08
2023-05-05T08:22:48.626Z,2.28
2023-05-05T08:25:15.795Z,3.05
2023-05-05T08:27:43.436Z,2.70
2023-05-05T08:30:11.070Z,2.42
2023-05-05T08:32:41.630Z,2.83
2023-05-05T08:35:09.320Z,3.15
2023-05-05T08:37:36.614Z,3.53
2023-05-05T08:40:04.013Z,3.28
2023-05-05T08:42:37.917Z,4.60
2023-05-05T08:45:07.864Z,4.50
2023-05-05T08:47:39.100Z,4.78
2023-05-05T08:50:08.120Z,5.10
2023-05-05T08:52:45.949Z,5.75
2023-05-05T08:55:16.032Z,5.00
2023-05-05T08:57:57.480Z,5.00
2023-05-05T09:00:27.368Z,3.88
2023-05-05T09:02:59.792Z,3.33
2023-05-05T09:05:27.464Z,4.07
2023-05-05T09:07:54.842Z,3.60
2023-05-05T09:10:21.986Z,3.88
2023-05-05T09:12:51.519Z,4.47
2023-05-05T09:15:18.855Z,4.57
2023-05-05T09:17:45.951Z,4.22
2023-05-05T09:20:14.786Z,4.38
2023-05-05T09:22:46.804Z,4.30
2023-05-05T09:25:16.563Z,3.85
2023-05-05T09:27:46.724Z,3.90
2023-05-05T09:30:23.401Z,3.83
2023-05-05T09:32:55.402Z,4.50
2023-05-05T09:35:23.736Z,3.17
2023-05-05T09:37:50.900Z,3.50
2023-05-05T09:40:20.162Z,2.78
2023-05-05T09:42:47.858Z,3.10
2023-05-05T10:17:23.966Z,2.63
2023-05-05T10:19:54.276Z,3.00
2023-05-05T10:22:23.516Z,2.70
2023-05-05T10:25:20.765Z,2.90
2023-05-05T10:27:53.257Z,3.03
2023-05-05T10:30:26.130Z,2.83
2023-05-05T10:33:30.120Z,3.00
2023-05-05T10:36:02.524Z,2.80
2023-05-05T10:38:34.089Z,3.40
2023-05-05T10:41:04.768Z,3.08
2023-05-05T10:43:32.156Z,3.35
2023-05-05T10:46:00.368Z,3.40
2023-05-05T10:48:38.225Z,3.60
2023-05-05T10:51:38.352Z,2.92
2023-05-05T10:54:34.279Z,4.15
2023-05-05T10:57:05.029Z,3.85
2023-05-05T10:59:38.193Z,4.28
2023-05-05T11:02:24.992Z,4.10
2023-05-05T11:05:09.532Z,4.53
2023-05-05T11:07:37.617Z,4.32
2023-05-05T11:10:06.908Z,3.63
2023-05-05T11:13:03.141Z,4.60
2023-05-05T11:15:30.640Z,4.00
2023-05-05T11:18:05.762Z,3.50
2023-05-05T11:23:07.457Z,4.18
2023-05-05T11:25:37.780Z,4.03
2023-05-05T11:28:15.124Z,4.50
2023-05-05T11:30:58.103Z,4.50
2023-05-05T11:33:37.114Z,4.25
2023-05-05T11:36:08.010Z,4.07
2023-05-05T11:39:02.554Z,4.50
2023-05-05T11:41:32.607Z,4.75
2023-05-05T11:44:13.047Z,4.57
2023-05-05T11:46:52.296Z,4.43
2023-05-05T11:49:28.339Z,4.22
2023-05-05T11:52:02.864Z,3.92
2023-05-05T11:54:31.372Z,4.60
2023-05-05T11:57:02.078Z,4.45
2023-05-05T11:59:29.203Z,4.70
2023-05-05T12:01:56.382Z,4.90
2023-05-05T12:04:23.596Z,4.65
2023-05-05T12:06:50.816Z,4.82
2023-05-05T12:09:20.713Z,4.40
2023-05-05T12:11:59.808Z,4.55
2023-05-05T12:14:27.672Z,4.45
2023-05-05T12:16:58.297Z,5.10
2023-05-05T12:19:30.279Z,5.00
2023-05-05T12:21:57.503Z,5.43
2023-05-05T12:24:24.609Z,4.78
2023-05-05T12:26:52.093Z,4.57
2023-05-05T12:29:29.856Z,4.53
2023-05-05T12:31:58.140Z,4.38
2023-05-05T12:34:25.521Z,4.38
2023-05-05T12:36:53.278Z,4.70
2023-05-05T12:39:20.775Z,4.60
2023-05-05T12:41:47.932Z,4.60
2023-05-05T12:44:14.997Z,4.90
2023-05-05T12:46:49.294Z,4.70
2023-05-05T12:49:17.668Z,4.47
2023-05-05T12:51:57.707Z,4.50
2023-05-05T12:54:25.220Z,4.75
2023-05-05T12:56:52.308Z,4.82
2023-05-05T12:59:22.420Z,4.55
2023-05-05T13:01:53.848Z,4.55
2023-05-05T13:04:25.894Z,4.90
2023-05-05T13:07:16.909Z,4.95
2023-05-05T13:09:44.134Z,4.85
2023-05-05T13:12:14.012Z,4.57
2023-05-05T13:14:41.994Z,4.68
2023-05-05T13:17:10.372Z,4.88
2023-05-05T13:19:42.138Z,4.60
2023-05-05T13:22:13.007Z,4.40
2023-05-05T13:24:50.889Z,4.90
2023-05-05T13:27:20.224Z,4.70
2023-05-05T13:29:47.309Z,4.40
2023-05-05T13:32:14.392Z,4.53
2023-05-05T13:34:42.758Z,4.90
2023-05-05T13:37:10.068Z,4.80
2023-05-05T13:39:37.283Z,4.60
2023-05-05T13:42:04.529Z,5.05
2023-05-05T13:44:31.640Z,4.82
2023-05-05T13:46:58.781Z,4.80
2023-05-05T13:49:26.070Z,4.50
2023-05-05T13:51:53.139Z,4.88
2023-05-05T13:54:20.175Z,5.05
2023-05-05T13:56:47.348Z,4.97
2023-05-05T13:59:14.443Z,4.80
2023-05-05T14:01:41.557Z,5.00
2023-05-05T14:04:08.798Z,4.82
2023-05-05T14:06:36.358Z,5.00
2023-05-05T14:09:06.207Z,4.80
2023-05-05T14:11:33.784Z,4.85
2023-05-05T14:14:00.951Z,5.10
2023-05-05T14:16:28.197Z,4.82
2023-05-05T14:18:55.400Z,4.50
2023-05-05T14:21:22.531Z,4.93
2023-05-05T14:23:49.662Z,4.75
2023-05-05T14:26:16.897Z,5.07
2023-05-05T14:28:44.624Z,4.95
2023-05-05T14:31:12.134Z,4.60
2023-05-05T14:33:39.317Z,4.70
2023-05-05T14:36:06.741Z,4.68
2023-05-05T14:38:33.832Z,4.60
2023-05-05T14:41:01.144Z,4.90
2023-05-05T14:43:28.313Z,5.07
2023-05-05T14:45:55.536Z,5.00
2023-05-05T14:48:22.861Z,4.60
2023-05-05T14:50:50.118Z,5.32
2023-05-05T14:53:19.128Z,4.30
2023-05-05T14:55:46.303Z,4.50
2023-05-05T14:58:13.347Z,4.57
2023-05-05T15:00:40.418Z,4.88
2023-05-05T15:03:07.664Z,4.82
2023-05-05T15:05:35.266Z,4.40
2023-05-05T15:08:02.399Z,4.40
2023-05-05T15:10:29.490Z,4.47
2023-05-05T15:12:56.663Z,4.38
2023-05-05T15:15:23.774Z,4.70
2023-05-05T15:17:50.859Z,4.40
2023-05-05T15:20:18.035Z,4.57
2023-05-05T15:22:45.070Z,5.25
2023-05-05T15:25:14.883Z,4.38
2023-05-05T15:27:42.333Z,4.50
2023-05-05T15:30:09.956Z,4.45
2023-05-05T15:32:37.160Z,4.82
2023-05-05T15:35:04.689Z,4.47
2023-05-05T15:37:31.995Z,4.63
2023-05-05T15:39:59.069Z,4.43
2023-05-05T15:42:26.887Z,4.93
2023-05-05T15:44:53.899Z,4.72
2023-05-05T15:47:20.997Z,4.80
2023-05-05T15:49:48.104Z,4.72
2023-05-05T15:52:15.265Z,4.78
2023-05-05T15:54:42.607Z,4.97
2023-05-05T15:57:10.049Z,4.60
2023-05-05T15:59:37.197Z,4.90
2023-05-05T16:02:04.330Z,4.80
2023-05-05T16:04:31.434Z,4.60
2023-05-05T16:06:59.351Z,4.43
2023-05-05T16:09:26.409Z,4.35
2023-05-05T16:11:55.688Z,4.70
2023-05-05T16:14:22.901Z,4.32
2023-05-05T16:16:50.044Z,4.30
2023-05-05T16:19:18.227Z,4.35
2023-05-05T16:21:45.596Z,4.50
2023-05-05T16:24:16.524Z,4.43
2023-05-05T16:26:44.456Z,4.28
2023-05-05T16:29:12.374Z,4.50
2023-05-05T16:31:39.971Z,4.43
2023-05-05T16:34:07.244Z,4.22
2023-05-05T16:36:34.615Z,3.97
2023-05-05T16:39:01.775Z,4.07
2023-05-05T16:41:28.938Z,3.60
2023-05-05T16:43:57.000Z,3.42
2023-05-05T16:46:24.170Z,3.40
2023-05-05T16:48:51.444Z,3.63
2023-05-05T16:51:18.537Z,3.40
2023-05-05T16:53:47.574Z,3.75
2023-05-05T16:56:16.016Z,3.85
2023-05-05T16:58:43.132Z,3.20
2023-05-05T17:01:10.228Z,3.60
2023-05-05T17:03:38.311Z,3.45
2023-05-05T17:06:06.030Z,3.78
2023-05-05T17:08:33.057Z,3.88
2023-05-05T17:11:00.122Z,3.53
2023-05-05T17:13:27.257Z,3.15
2023-05-05T17:15:54.410Z,3.38
2023-05-05T17:18:22.834Z,4.53
2023-05-05T17:20:50.349Z,3.30
2023-05-05T17:23:17.499Z,2.80
2023-05-05T17:25:44.592Z,2.67
2023-05-05T17:28:11.762Z,3.00
2023-05-05T17:30:38.826Z,3.00
2023-05-05T17:33:05.908Z,5.13
2023-05-05T17:35:33.211Z,2.70
2023-05-05T17:38:00.440Z,2.40
2023-05-05T17:40:27.572Z,2.65
2023-05-05T17:42:54.661Z,2.50
2023-05-05T17:45:21.764Z,2.95
2023-05-05T17:47:48.926Z,2.92
2023-05-05T17:50:16.229Z,2.80
2023-05-05T17:52:45.203Z,2.95
2023-05-05T17:55:12.901Z,4.53
2023-05-05T17:57:40.125Z,3.50
2023-05-05T18:00:09.044Z,4.10
2023-05-05T18:02:42.078Z,3.38
2023-05-05T18:05:09.803Z,3.40
2023-05-05T18:07:38.757Z,3.33
2023-05-05T18:10:10.751Z,3.38
2023-05-05T18:12:38.142Z,3.45
2023-05-05T18:15:05.907Z,3.00
2023-05-05T18:17:33.040Z,3.47
2023-05-05T18:20:00.217Z,3.55
2023-05-05T18:22:27.388Z,2.90
2023-05-05T18:24:59.130Z,3.00
2023-05-05T18:27:28.012Z,3.08
2023-05-05T18:29:55.342Z,2.92
2023-05-05T18:32:22.824Z,3.10
2023-05-05T18:34:50.214Z,3.10
2023-05-05T18:37:17.336Z,3.22
2023-05-05T18:39:45.316Z,3.55
2023-05-05T18:42:13.160Z,3.40
2023-05-05T18:44:40.426Z,2.80
2023-05-05T18:47:08.078Z,3.10
2023-05-05T18:49:35.873Z,3.45
2023-05-05T18:52:03.226Z,3.25
2023-05-05T18:54:30.412Z,3.60
2023-05-05T18:56:57.793Z,3.47
2023-05-05T18:59:24.877Z,5.03
2023-05-05T19:01:52.031Z,3.30
2023-05-05T19:04:30.106Z,3.85
2023-05-05T19:06:58.152Z,3.75
2023-05-05T19:09:25.328Z,3.58
2023-05-05T19:11:52.535Z,4.45
2023-05-05T19:14:19.619Z,3.70
2023-05-05T19:16:47.071Z,3.47
2023-05-05T19:19:14.483Z,3.40
2023-05-05T19:21:41.582Z,4.20
2023-05-05T19:24:09.741Z,3.90
2023-05-05T19:26:37.081Z,4.15
2023-05-05T19:29:04.457Z,3.38
2023-05-05T19:31:32.033Z,3.45
2023-05-05T19:34:03.923Z,3.55
2023-05-05T19:36:31.892Z,3.55
2023-05-05T19:39:02.946Z,3.30
2023-05-05T19:41:30.941Z,3.65
2023-05-05T19:43:58.037Z,2.90
2023-05-05T19:46:26.710Z,3.13
2023-05-05T19:48:53.972Z,2.72
2023-05-05T19:51:21.252Z,3.17
2023-05-05T19:53:48.591Z,2.90
2023-05-05T19:56:17.099Z,3.17
2023-05-05T19:58:59.159Z,3.20
2023-05-05T20:01:26.953Z,3.03
2023-05-05T20:03:56.040Z,3.20
2023-05-05T20:06:23.362Z,3.58
2023-05-05T20:08:50.857Z,3.10
2023-05-05T20:11:18.356Z,3.88
2023-05-05T20:13:45.578Z,3.75
2023-05-05T20:16:14.948Z,3.88
2023-05-05T20:18:42.155Z,3.78
2023-05-05T20:21:09.402Z,3.40
2023-05-05T20:23:37.186Z,3.63
2023-05-05T20:26:04.470Z,3.50
2023-05-05T20:28:32.158Z,6.45
2023-05-05T20:31:00.906Z,4.05
2023-05-05T20:33:29.130Z,3.60
2023-05-05T20:35:56.326Z,3.80
2023-05-05T20:38:23.457Z,3.53
2023-05-05T20:40:52.312Z,4.07
2023-05-05T20:43:19.719Z,3.60
2023-05-05T20:45:46.772Z,3.75
2023-05-05T20:48:13.860Z,3.45
2023-05-05T20:50:41.833Z,3.42
2023-05-05T20:53:09.863Z,3.30
2023-05-05T20:55:37.218Z,3.30
2023-05-05T20:58:05.525Z,3.40
2023-05-05T21:00:32.700Z,3.30
2023-05-05T21:02:59.963Z,2.88
2023-05-05T21:05:27.161Z,3.17
2023-05-05T21:07:54.731Z,2.67
2023-05-05T21:10:21.933Z,2.20
2023-05-05T21:12:49.062Z,2.13
2023-05-05T21:15:16.928Z,2.15
2023-05-05T21:17:44.253Z,2.45
2023-05-05T21:20:12.233Z,1.75
2023-05-05T21:22:39.583Z,2.50
2023-05-05T21:25:10.416Z,2.15
2023-05-05T21:27:37.566Z,2.20
2023-05-05T21:30:05.068Z,2.53
2023-05-05T21:32:32.180Z,3.92
2023-05-05T21:34:59.302Z,3.63
2023-05-05T21:37:26.529Z,4.05
2023-05-05T21:39:54.132Z,3.58
2023-05-05T21:42:21.257Z,3.28
2023-05-05T21:44:48.285Z,3.00
2023-05-05T21:47:16.444Z,2.97
2023-05-05T21:49:43.611Z,2.40
2023-05-05T21:52:10.891Z,2.53
2023-05-05T21:54:38.010Z,2.33
2023-05-05T21:57:05.088Z,2.92
2023-05-05T21:59:32.220Z,4.00
2023-05-05T22:01:59.433Z,3.50
2023-05-05T22:04:26.560Z,3.40
2023-05-05T22:06:53.715Z,2.47
2023-05-05T22:09:21.163Z,2.50
2023-05-05T22:11:48.260Z,2.13
2023-05-05T22:14:16.045Z,2.72
2023-05-05T22:16:43.539Z,2.13
2023-05-05T22:19:10.774Z,2.20
2023-05-05T22:21:37.900Z,1.85
2023-05-05T22:24:07.279Z,2.95
2023-05-05T22:26:34.384Z,2.00
2023-05-05T22:29:01.716Z,2.30
2023-05-05T22:31:29.549Z,1.92
2023-05-05T22:33:56.711Z,2.40
2023-05-05T22:36:23.789Z,2.20
2023-05-05T22:38:50.867Z,1.83
2023-05-05T22:41:17.960Z,2.10
2023-05-05T22:43:45.053Z,2.10
2023-05-05T22:46:12.339Z,2.28
2023-05-05T22:48:39.505Z,2.10
2023-05-05T22:51:06.596Z,1.92
2023-05-05T22:53:33.730Z,1.90
2023-05-05T22:56:01.149Z,1.90
2023-05-05T22:58:28.576Z,2.17
2023-05-05T23:00:55.621Z,1.70
2023-05-05T23:03:22.784Z,1.70
2023-05-05T23:05:49.884Z,1.77
2023-05-05T23:08:16.923Z,1.95
2023-05-05T23:10:43.942Z,1.63
2023-05-05T23:13:11.176Z,2.08
2023-05-05T23:15:38.321Z,1.83
2023-05-05T23:18:05.453Z,1.75
2023-05-05T23:20:32.647Z,1.52
2023-05-05T23:22:59.792Z,1.75
2023-05-05T23:25:26.834Z,1.83
2023-05-05T23:27:53.968Z,1.40
2023-05-05T23:30:21.147Z,1.85
2023-05-05T23:32:48.279Z,1.85
2023-05-05T23:35:15.530Z,1.45
2023-05-05T23:37:42.586Z,1.52
2023-05-05T23:40:10.203Z,2.00
2023-05-05T23:42:37.290Z,1.92
2023-05-05T23:45:04.608Z,2.30
2023-05-05T23:47:32.345Z,1.60
2023-05-05T23:49:59.491Z,2.20
2023-05-05T23:52:26.904Z,1.77
2023-05-05T23:54:53.971Z,1.98
2023-05-05T23:57:21.003Z,2.00
2023-05-05T23:59:48.142Z,1.90
